createdAt,value
2018-02-15T00:00:09.622Z,980.03
2018-02-15T00:01:09.657Z,980.05
2018-02-15T00:02:09.611Z,980.04
2018-02-15T00:03:09.603Z,980.07
2018-02-15T00:04:09.592Z,980.05
2018-02-15T00:05:09.583Z,980.09
2018-02-15T00:06:09.632Z,980.07
2018-02-15T00:07:09.571Z,980.09
2018-02-15T00:08:09.602Z,980.09
2018-02-15T00:09:09.554Z,980.14
2018-02-15T00:10:09.553Z,980.17
2018-02-15T00:11:09.542Z,980.16
2018-02-15T00:12:09.574Z,980.13
2018-02-15T00:13:09.528Z,980.19
2018-02-15T00:14:09.516Z,980.21
2018-02-15T00:15:09.514Z,980.21
2018-02-15T00:16:09.503Z,980.24
2018-02-15T00:17:09.543Z,980.20
2018-02-15T00:18:09.524Z,980.14
2018-02-15T00:19:09.482Z,980.11
2018-02-15T00:20:09.472Z,980.16
2018-02-15T00:21:09.461Z,980.19
2018-02-15T00:22:09.500Z,980.19
2018-02-15T00:23:09.452Z,980.22
2018-02-15T00:24:09.441Z,980.21
2018-02-15T00:25:09.435Z,980.19
2018-02-15T00:26:09.426Z,980.18
2018-02-15T00:27:09.461Z,980.15
2018-02-15T00:28:09.411Z,980.17
2018-02-15T00:29:09.403Z,980.14
2018-02-15T00:30:09.397Z,980.13
2018-02-15T00:31:09.395Z,980.14
2018-02-15T00:32:09.419Z,980.15
2018-02-15T00:33:09.375Z,980.14
2018-02-15T00:34:09.367Z,980.06
2018-02-15T00:35:09.360Z,980.12
2018-02-15T00:36:09.347Z,980.10
2018-02-15T00:37:09.379Z,980.09
2018-02-15T00:38:09.332Z,980.11
2018-02-15T00:39:09.327Z,980.14
2018-02-15T00:40:09.317Z,980.20
2018-02-15T00:41:09.311Z,980.17
2018-02-15T00:42:09.342Z,980.20
2018-02-15T00:43:09.298Z,980.18
2018-02-15T00:44:09.289Z,980.26
2018-02-15T00:45:09.281Z,980.24
2018-02-15T00:46:09.277Z,980.28
2018-02-15T00:47:09.306Z,980.23
2018-02-15T00:48:09.259Z,980.21
2018-02-15T00:49:09.249Z,980.24
2018-02-15T00:50:09.244Z,980.21
2018-02-15T00:51:09.276Z,980.21
2018-02-15T00:52:09.230Z,980.26
2018-02-15T00:53:09.233Z,980.27
2018-02-15T00:54:09.234Z,980.30
2018-02-15T00:55:09.205Z,980.32
2018-02-15T00:56:09.238Z,980.27
2018-02-15T00:57:09.200Z,980.25
2018-02-15T00:58:09.183Z,980.30
2018-02-15T00:59:09.174Z,980.28
2018-02-15T01:00:09.173Z,980.25
2018-02-15T01:01:09.207Z,980.26
2018-02-15T01:02:09.153Z,980.27
2018-02-15T01:03:09.146Z,980.28
2018-02-15T01:04:09.144Z,980.29
2018-02-15T01:05:09.128Z,980.38
2018-02-15T01:06:09.695Z,980.35
2018-02-15T01:07:09.116Z,980.35
2018-02-15T01:08:09.110Z,980.37
2018-02-15T01:09:09.103Z,980.29
2018-02-15T01:10:09.092Z,980.25
2018-02-15T01:11:09.125Z,980.20
2018-02-15T01:12:09.079Z,980.22
2018-02-15T01:13:09.072Z,980.20
2018-02-15T01:14:09.068Z,980.21
2018-02-15T01:15:09.060Z,980.20
2018-02-15T01:16:09.089Z,980.23
2018-02-15T01:17:09.037Z,980.19
2018-02-15T01:18:09.033Z,980.20
2018-02-15T01:19:09.022Z,980.16
2018-02-15T01:20:09.017Z,980.17
2018-02-15T01:21:09.060Z,980.19
2018-02-15T01:22:09.042Z,980.13
2018-02-15T01:23:09.008Z,980.17
2018-02-15T01:24:08.987Z,980.18
2018-02-15T01:25:08.979Z,980.19
2018-02-15T01:26:08.968Z,980.17
2018-02-15T01:27:09.000Z,980.18
2018-02-15T01:28:09.015Z,980.14
2018-02-15T01:29:09.007Z,980.13
2018-02-15T01:30:08.943Z,980.12
2018-02-15T01:31:08.933Z,980.07
2018-02-15T01:32:08.975Z,980.09
2018-02-15T01:33:08.915Z,980.07
2018-02-15T01:34:08.913Z,980.05
2018-02-15T01:35:08.900Z,980.04
2018-02-15T01:36:08.891Z,980.04
2018-02-15T01:37:08.927Z,980.05
2018-02-15T01:38:08.919Z,980.04
2018-02-15T01:39:08.869Z,979.97
2018-02-15T01:40:08.872Z,980.00
2018-02-15T01:41:08.852Z,980.02
2018-02-15T01:42:08.846Z,979.96
2018-02-15T01:43:08.880Z,980.00
2018-02-15T01:44:08.829Z,979.98
2018-02-15T01:45:08.881Z,980.01
2018-02-15T01:46:08.811Z,980.02
2018-02-15T01:47:08.858Z,979.96
2018-02-15T01:48:08.795Z,980.01
2018-02-15T01:49:09.592Z,979.99
2018-02-15T01:50:08.777Z,979.97
2018-02-15T01:51:08.772Z,980.01
2018-02-15T01:52:08.797Z,979.96
2018-02-15T01:53:08.795Z,980.00
2018-02-15T01:54:08.748Z,980.02
2018-02-15T01:55:08.742Z,980.01
2018-02-15T01:56:08.727Z,979.95
2018-02-15T01:57:08.723Z,979.90
2018-02-15T01:58:08.756Z,979.96
2018-02-15T01:59:08.703Z,979.97
2018-02-15T02:00:08.702Z,979.99
2018-02-15T02:01:08.689Z,980.05
2018-02-15T02:02:08.788Z,980.01
2018-02-15T02:03:08.720Z,980.05
2018-02-15T02:04:08.662Z,979.99
2018-02-15T02:05:08.653Z,980.03
2018-02-15T02:06:08.646Z,980.07
2018-02-15T02:07:08.639Z,980.03
2018-02-15T02:08:08.669Z,980.02
2018-02-15T02:09:08.622Z,979.99
2018-02-15T02:10:08.614Z,979.99
2018-02-15T02:11:08.602Z,979.97
2018-02-15T02:12:08.595Z,979.96
2018-02-15T02:13:08.626Z,979.96
2018-02-15T02:14:08.578Z,979.92
2018-02-15T02:15:08.603Z,979.94
2018-02-15T02:16:08.562Z,979.94
2018-02-15T02:17:08.554Z,979.86
2018-02-15T02:18:08.592Z,979.86
2018-02-15T02:19:08.537Z,979.82
2018-02-15T02:20:08.526Z,979.79
2018-02-15T02:21:08.579Z,979.80
2018-02-15T02:22:08.747Z,979.78
2018-02-15T02:23:08.537Z,979.72
2018-02-15T02:24:08.495Z,979.77
2018-02-15T02:25:08.497Z,979.77
2018-02-15T02:26:08.479Z,979.75
2018-02-15T02:27:08.465Z,979.81
2018-02-15T02:28:08.502Z,979.83
2018-02-15T02:29:08.452Z,979.80
2018-02-15T02:30:08.443Z,979.76
2018-02-15T02:31:08.436Z,979.74
2018-02-15T02:32:08.428Z,979.79
2018-02-15T02:33:08.452Z,979.72
2018-02-15T02:34:08.407Z,979.76
2018-02-15T02:35:08.400Z,979.72
2018-02-15T02:36:08.385Z,979.69
2018-02-15T02:37:08.378Z,979.68
2018-02-15T02:38:08.417Z,979.67
2018-02-15T02:39:08.360Z,979.67
2018-02-15T02:40:08.352Z,979.70
2018-02-15T02:41:08.346Z,979.57
2018-02-15T02:42:08.332Z,979.58
2018-02-15T02:43:08.364Z,979.55
2018-02-15T02:44:08.354Z,979.56
2018-02-15T02:45:08.304Z,979.62
2018-02-15T02:46:08.298Z,979.58
2018-02-15T02:47:08.285Z,979.57
2018-02-15T02:48:08.277Z,979.57
2018-02-15T02:49:08.322Z,979.56
2018-02-15T02:50:08.256Z,979.55
2018-02-15T02:51:08.455Z,979.51
2018-02-15T02:52:08.241Z,979.51
2018-02-15T02:53:08.231Z,979.51
2018-02-15T02:54:08.260Z,979.53
2018-02-15T02:55:08.217Z,979.55
2018-02-15T02:56:08.204Z,979.53
2018-02-15T02:57:08.202Z,979.53
2018-02-15T02:58:08.192Z,979.51
2018-02-15T02:59:08.218Z,979.44
2018-02-15T03:00:08.168Z,979.43
2018-02-15T03:01:08.159Z,979.34
2018-02-15T03:02:08.149Z,979.28
2018-02-15T03:03:08.138Z,979.27
2018-02-15T03:04:08.176Z,979.20
2018-02-15T03:05:08.120Z,979.18
2018-02-15T03:06:08.117Z,979.16
2018-02-15T03:07:08.107Z,979.17
2018-02-15T03:08:08.094Z,979.09
2018-02-15T03:09:08.133Z,979.08
2018-02-15T03:10:08.080Z,979.05
2018-02-15T03:11:08.066Z,979.05
2018-02-15T03:12:08.061Z,979.01
2018-02-15T03:13:08.106Z,979.04
2018-02-15T03:14:08.042Z,979.02
2018-02-15T03:15:08.030Z,978.99
2018-02-15T03:16:08.023Z,979.01
2018-02-15T03:17:08.011Z,979.04
2018-02-15T03:18:08.051Z,979.02
2018-02-15T03:19:07.994Z,979.02
2018-02-15T03:20:07.983Z,979.00
2018-02-15T03:21:07.973Z,978.99
2018-02-15T03:22:07.964Z,978.96
2018-02-15T03:23:08.002Z,978.93
2018-02-15T03:24:07.956Z,978.88
2018-02-15T03:25:07.975Z,978.92
2018-02-15T03:26:07.930Z,978.87
2018-02-15T03:27:07.923Z,978.92
2018-02-15T03:28:07.912Z,978.88
2018-02-15T03:29:07.938Z,978.86
2018-02-15T03:30:07.938Z,978.85
2018-02-15T03:31:07.891Z,978.88
2018-02-15T03:32:07.878Z,978.92
2018-02-15T03:33:07.866Z,978.96
2018-02-15T03:34:07.859Z,979.08
2018-02-15T03:35:07.890Z,979.14
2018-02-15T03:36:07.842Z,979.18
2018-02-15T03:37:07.831Z,979.19
2018-02-15T03:38:07.822Z,979.19
2018-02-15T03:39:07.817Z,979.18
2018-02-15T03:40:07.849Z,979.12
2018-02-15T03:41:07.795Z,979.10
2018-02-15T03:42:07.785Z,979.11
2018-02-15T03:43:07.781Z,979.07
2018-02-15T03:44:07.786Z,979.06
2018-02-15T03:45:07.814Z,979.02
2018-02-15T03:46:07.757Z,979.01
2018-02-15T03:47:07.785Z,979.03
2018-02-15T03:48:07.739Z,979.05
2018-02-15T03:49:07.724Z,978.98
2018-02-15T03:50:07.718Z,978.99
2018-02-15T03:51:07.751Z,978.93
2018-02-15T03:52:07.702Z,978.96
2018-02-15T03:53:07.688Z,978.98
2018-02-15T03:54:07.681Z,978.94
2018-02-15T03:55:07.674Z,978.98
2018-02-15T03:56:07.705Z,978.98
2018-02-15T03:57:07.658Z,978.98
2018-02-15T03:58:07.652Z,978.92
2018-02-15T03:59:07.639Z,979.05
2018-02-15T04:00:07.632Z,978.98
2018-02-15T04:01:07.674Z,978.99
2018-02-15T04:02:07.614Z,978.91
2018-02-15T04:03:07.606Z,978.86
2018-02-15T04:04:07.595Z,978.85
2018-02-15T04:05:07.592Z,978.86
2018-02-15T04:06:07.616Z,978.89
2018-02-15T04:07:07.613Z,978.81
2018-02-15T04:08:07.562Z,978.82
2018-02-15T04:09:07.555Z,978.80
2018-02-15T04:10:07.546Z,978.78
2018-02-15T04:11:07.540Z,978.74
2018-02-15T04:12:07.566Z,978.73
2018-02-15T04:13:07.518Z,978.71
2018-02-15T04:14:07.523Z,978.71
2018-02-15T04:15:07.508Z,978.72
2018-02-15T04:16:07.496Z,978.73
2018-02-15T04:17:07.538Z,978.68
2018-02-15T04:18:07.478Z,978.59
2018-02-15T04:19:07.477Z,978.58
2018-02-15T04:20:07.465Z,978.62
2018-02-15T04:21:07.495Z,978.52
2018-02-15T04:22:07.488Z,978.62
2018-02-15T04:23:07.440Z,978.56
2018-02-15T04:24:07.429Z,978.62
2018-02-15T04:25:07.430Z,978.61
2018-02-15T04:26:07.417Z,978.55
2018-02-15T04:27:07.448Z,978.61
2018-02-15T04:28:07.398Z,978.65
2018-02-15T04:29:07.390Z,978.63
2018-02-15T04:30:07.391Z,978.66
2018-02-15T04:31:07.385Z,978.64
2018-02-15T04:32:07.419Z,978.64
2018-02-15T04:33:07.361Z,978.71
2018-02-15T04:34:07.355Z,978.67
2018-02-15T04:35:07.346Z,978.62
2018-02-15T04:36:07.378Z,978.61
2018-02-15T04:37:07.332Z,978.56
2018-02-15T04:38:07.327Z,978.61
2018-02-15T04:39:07.321Z,978.65
2018-02-15T04:40:07.945Z,978.64
2018-02-15T04:41:07.340Z,978.66
2018-02-15T04:42:07.293Z,978.63
2018-02-15T04:43:07.288Z,978.68
2018-02-15T04:44:07.282Z,978.66
2018-02-15T04:45:07.274Z,978.65
2018-02-15T04:46:07.307Z,978.62
2018-02-15T04:47:07.257Z,978.67
2018-02-15T04:48:07.252Z,978.60
2018-02-15T04:49:07.244Z,978.66
2018-02-15T04:50:07.236Z,978.58
2018-02-15T04:51:07.276Z,978.55
2018-02-15T04:52:07.225Z,978.47
2018-02-15T04:53:07.214Z,978.40
2018-02-15T04:54:07.205Z,978.36
2018-02-15T04:55:07.200Z,978.37
2018-02-15T04:56:07.241Z,978.40
2018-02-15T04:57:07.185Z,978.39
2018-02-15T04:58:07.181Z,978.40
2018-02-15T04:59:07.220Z,978.40
2018-02-15T05:00:07.164Z,978.36
2018-02-15T05:01:07.157Z,978.36
2018-02-15T05:02:07.185Z,978.35
2018-02-15T05:03:07.143Z,978.36
2018-02-15T05:04:07.136Z,978.42
2018-02-15T05:05:07.129Z,978.40
2018-02-15T05:06:07.121Z,978.36
2018-02-15T05:07:07.167Z,978.40
2018-02-15T05:08:07.108Z,978.40
2018-02-15T05:09:07.140Z,978.36
2018-02-15T05:10:07.093Z,978.35
2018-02-15T05:11:07.089Z,978.34
2018-02-15T05:12:07.117Z,978.34
2018-02-15T05:13:07.076Z,978.33
2018-02-15T05:14:07.065Z,978.30
2018-02-15T05:15:07.060Z,978.32
2018-02-15T05:16:07.052Z,978.33
2018-02-15T05:17:07.085Z,978.31
2018-02-15T05:18:07.069Z,978.31
2018-02-15T05:19:07.031Z,978.28
2018-02-15T05:20:07.027Z,978.27
2018-02-15T05:21:07.014Z,978.23
2018-02-15T05:22:07.060Z,978.23
2018-02-15T05:23:07.000Z,978.22
2018-02-15T05:24:07.034Z,978.17
2018-02-15T05:25:06.986Z,978.21
2018-02-15T05:26:06.981Z,978.22
2018-02-15T05:27:06.976Z,978.18
2018-02-15T05:28:07.017Z,978.18
2018-02-15T05:29:06.959Z,978.13
2018-02-15T05:30:06.953Z,978.11
2018-02-15T05:31:06.944Z,978.14
2018-02-15T05:32:06.940Z,978.15
2018-02-15T05:33:06.970Z,978.14
2018-02-15T05:34:06.927Z,978.13
2018-02-15T05:35:06.918Z,978.11
2018-02-15T05:36:06.913Z,978.17
2018-02-15T05:37:06.906Z,978.21
2018-02-15T05:38:06.933Z,978.24
2018-02-15T05:39:06.892Z,978.26
2018-02-15T05:40:06.889Z,978.34
2018-02-15T05:41:06.880Z,978.34
2018-02-15T05:42:06.867Z,978.41
2018-02-15T05:43:06.901Z,978.43
2018-02-15T05:44:06.857Z,978.45
2018-02-15T05:45:06.848Z,978.42
2018-02-15T05:46:06.843Z,978.44
2018-02-15T05:47:06.837Z,978.48
2018-02-15T05:48:06.866Z,978.49
2018-02-15T05:49:06.822Z,978.48
2018-02-15T05:50:06.818Z,978.47
2018-02-15T05:51:06.806Z,978.47
2018-02-15T05:52:06.799Z,978.50
2018-02-15T05:53:06.846Z,978.53
2018-02-15T05:54:06.784Z,978.53
2018-02-15T05:55:06.783Z,978.55
2018-02-15T05:56:06.774Z,978.57
2018-02-15T05:57:06.764Z,978.54
2018-02-15T05:58:06.802Z,978.50
2018-02-15T05:59:06.755Z,978.57
2018-02-15T06:00:06.743Z,978.61
2018-02-15T06:01:06.735Z,978.66
2018-02-15T06:02:06.727Z,978.69
2018-02-15T06:03:06.773Z,978.72
2018-02-15T06:04:06.720Z,978.74
2018-02-15T06:05:06.709Z,978.71
2018-02-15T06:06:06.702Z,978.75
2018-02-15T06:07:06.695Z,978.82
2018-02-15T06:08:06.736Z,978.79
2018-02-15T06:09:06.722Z,978.68
2018-02-15T06:10:06.674Z,978.73
2018-02-15T06:11:06.665Z,978.72
2018-02-15T06:12:06.661Z,978.74
2018-02-15T06:13:06.693Z,978.72
2018-02-15T06:14:06.646Z,978.68
2018-02-15T06:15:06.640Z,978.74
2018-02-15T06:16:06.632Z,978.81
2018-02-15T06:17:06.629Z,978.85
2018-02-15T06:18:06.661Z,978.81
2018-02-15T06:19:06.614Z,978.78
2018-02-15T06:20:06.608Z,978.83
2018-02-15T06:21:06.655Z,978.79
2018-02-15T06:22:06.650Z,978.77
2018-02-15T06:23:06.685Z,978.77
2018-02-15T06:24:06.637Z,978.76
2018-02-15T06:25:06.626Z,978.79
2018-02-15T06:26:06.621Z,978.77
2018-02-15T06:27:06.613Z,978.80
2018-02-15T06:28:06.661Z,978.83
2018-02-15T06:29:06.603Z,978.78
2018-02-15T06:30:06.595Z,978.79
2018-02-15T06:31:06.586Z,978.83
2018-02-15T06:32:06.578Z,978.81
2018-02-15T06:33:06.621Z,978.79
2018-02-15T06:34:06.572Z,978.82
2018-02-15T06:35:06.561Z,978.74
2018-02-15T06:36:06.549Z,978.79
2018-02-15T06:37:07.880Z,978.79
2018-02-15T06:38:06.585Z,978.73
2018-02-15T06:39:06.531Z,978.72
2018-02-15T06:40:06.906Z,978.70
2018-02-15T06:41:06.546Z,978.67
2018-02-15T06:42:06.510Z,978.66
2018-02-15T06:43:06.988Z,978.64
2018-02-15T06:44:06.498Z,978.58
2018-02-15T06:45:06.808Z,978.64
2018-02-15T06:46:06.482Z,978.63
2018-02-15T06:47:06.479Z,978.58
2018-02-15T06:48:07.207Z,978.60
2018-02-15T06:49:06.463Z,978.55
2018-02-15T06:50:07.667Z,978.60
2018-02-15T06:51:06.450Z,978.55
2018-02-15T06:52:07.011Z,978.57
2018-02-15T06:53:07.070Z,978.55
2018-02-15T06:54:06.466Z,978.58
2018-02-15T06:55:07.338Z,978.50
2018-02-15T06:56:06.413Z,978.57
2018-02-15T06:57:06.948Z,978.60
2018-02-15T06:58:06.401Z,978.52
2018-02-15T06:59:07.194Z,978.54
2018-02-15T07:00:06.389Z,978.60
2018-02-15T07:01:06.851Z,978.45
2018-02-15T07:02:06.380Z,978.54
2018-02-15T07:03:06.917Z,978.57
2018-02-15T07:04:07.303Z,978.54
2018-02-15T07:05:06.404Z,978.52
2018-02-15T07:06:06.352Z,978.49
2018-02-15T07:07:06.346Z,978.48
2018-02-15T07:08:06.335Z,978.47
2018-02-15T07:09:06.333Z,978.50
2018-02-15T07:10:06.356Z,978.52
2018-02-15T07:11:06.314Z,978.57
2018-02-15T07:12:06.307Z,978.53
2018-02-15T07:13:06.305Z,978.49
2018-02-15T07:14:06.295Z,978.48
2018-02-15T07:15:06.333Z,978.42
2018-02-15T07:16:06.283Z,978.41
2018-02-15T07:17:06.276Z,978.42
2018-02-15T07:18:06.267Z,978.39
2018-02-15T07:19:06.303Z,978.31
2018-02-15T07:20:06.256Z,978.34
2018-02-15T07:21:06.251Z,978.28
2018-02-15T07:22:06.242Z,978.26
2018-02-15T07:23:06.237Z,978.26
2018-02-15T07:24:06.265Z,978.22
2018-02-15T07:25:06.226Z,978.25
2018-02-15T07:26:06.218Z,978.23
2018-02-15T07:27:06.215Z,978.15
2018-02-15T07:28:06.205Z,978.08
2018-02-15T07:29:06.249Z,978.10
2018-02-15T07:30:06.193Z,978.08
2018-02-15T07:31:06.225Z,978.10
2018-02-15T07:32:06.184Z,978.11
2018-02-15T07:33:06.174Z,978.10
2018-02-15T07:34:06.165Z,978.06
2018-02-15T07:35:06.199Z,978.17
2018-02-15T07:36:06.153Z,978.16
2018-02-15T07:37:06.146Z,978.17
2018-02-15T07:38:06.141Z,978.11
2018-02-15T07:39:06.134Z,978.17
2018-02-15T07:40:06.173Z,978.13
2018-02-15T07:41:06.124Z,978.22
2018-02-15T07:42:06.120Z,978.16
2018-02-15T07:43:06.111Z,978.14
2018-02-15T07:44:06.105Z,978.10
2018-02-15T07:45:06.144Z,978.13
2018-02-15T07:46:06.093Z,978.12
2018-02-15T07:47:06.086Z,978.16
2018-02-15T07:48:06.079Z,978.10
2018-02-15T07:49:06.621Z,978.13
2018-02-15T07:50:07.375Z,978.13
2018-02-15T07:51:08.056Z,978.15
2018-02-15T07:52:06.066Z,978.12
2018-02-15T07:53:06.447Z,978.08
2018-02-15T07:54:06.376Z,978.10
2018-02-15T07:55:06.786Z,978.19
2018-02-15T07:56:06.083Z,978.13
2018-02-15T07:57:07.332Z,978.17
2018-02-15T07:58:06.027Z,978.15
2018-02-15T07:59:06.020Z,978.15
2018-02-15T08:00:06.220Z,978.11
2018-02-15T08:01:06.058Z,978.11
2018-02-15T08:02:06.452Z,978.15
2018-02-15T08:03:06.034Z,978.14
2018-02-15T08:04:05.999Z,978.17
2018-02-15T08:05:06.404Z,978.24
2018-02-15T08:06:06.024Z,978.24
2018-02-15T08:07:06.360Z,978.32
2018-02-15T08:08:05.974Z,978.29
2018-02-15T08:09:06.829Z,978.30
2018-02-15T08:10:05.966Z,978.22
2018-02-15T08:11:05.962Z,978.27
2018-02-15T08:12:05.996Z,978.26
2018-02-15T08:13:05.948Z,978.23
2018-02-15T08:14:05.938Z,978.27
2018-02-15T08:15:05.937Z,978.22
2018-02-15T08:16:05.934Z,978.22
2018-02-15T08:17:05.967Z,978.20
2018-02-15T08:18:05.926Z,978.15
2018-02-15T08:19:05.911Z,978.14
2018-02-15T08:20:05.904Z,978.09
2018-02-15T08:21:05.914Z,978.10
2018-02-15T08:22:05.941Z,978.10
2018-02-15T08:23:05.895Z,978.12
2018-02-15T08:24:05.887Z,978.12
2018-02-15T08:25:05.899Z,978.12
2018-02-15T08:26:05.882Z,978.17
2018-02-15T08:27:05.923Z,978.11
2018-02-15T08:28:05.867Z,978.07
2018-02-15T08:29:05.862Z,978.11
2018-02-15T08:30:05.861Z,978.04
2018-02-15T08:31:05.858Z,978.11
2018-02-15T08:32:05.904Z,978.09
2018-02-15T08:33:05.861Z,978.16
2018-02-15T08:34:05.841Z,978.12
2018-02-15T08:35:05.836Z,978.11
2018-02-15T08:36:05.882Z,978.17
2018-02-15T08:37:05.851Z,978.19
2018-02-15T08:38:05.822Z,978.12
2018-02-15T08:39:05.816Z,978.10
2018-02-15T08:40:05.813Z,978.10
2018-02-15T08:41:05.846Z,978.14
2018-02-15T08:42:05.832Z,978.00
2018-02-15T08:43:05.850Z,977.97
2018-02-15T08:44:05.810Z,978.03
2018-02-15T08:45:06.003Z,977.99
2018-02-15T08:46:07.351Z,977.98
2018-02-15T08:47:05.829Z,978.07
2018-02-15T08:48:05.777Z,978.03
2018-02-15T08:49:05.810Z,978.06
2018-02-15T08:50:05.777Z,978.04
2018-02-15T08:51:06.674Z,978.08
2018-02-15T08:52:05.778Z,978.05
2018-02-15T08:53:05.758Z,978.08
2018-02-15T08:54:05.792Z,978.04
2018-02-15T08:55:05.751Z,978.06
2018-02-15T08:56:05.747Z,978.08
2018-02-15T08:57:06.646Z,978.05
2018-02-15T08:58:06.286Z,978.05
2018-02-15T08:59:06.356Z,977.99
2018-02-15T09:00:06.837Z,977.90
2018-02-15T09:01:06.334Z,977.92
2018-02-15T09:02:05.719Z,977.86
2018-02-15T09:03:05.752Z,977.94
2018-02-15T09:04:05.720Z,977.89
2018-02-15T09:05:05.721Z,977.92
2018-02-15T09:06:05.698Z,977.91
2018-02-15T09:07:05.694Z,977.89
2018-02-15T09:08:05.744Z,977.87
2018-02-15T09:09:05.696Z,977.85
2018-02-15T09:10:06.327Z,977.87
2018-02-15T09:11:06.061Z,977.87
2018-02-15T09:12:06.458Z,977.73
2018-02-15T09:13:05.865Z,977.93
2018-02-15T09:14:06.583Z,977.78
2018-02-15T09:15:05.662Z,977.83
2018-02-15T09:16:05.661Z,977.83
2018-02-15T09:17:05.897Z,977.85
2018-02-15T09:18:05.690Z,977.71
2018-02-15T09:19:05.644Z,977.68
2018-02-15T09:20:05.642Z,977.70
2018-02-15T09:21:05.638Z,977.73
2018-02-15T09:22:05.638Z,977.71
2018-02-15T09:23:05.671Z,977.68
2018-02-15T09:24:05.627Z,977.77
2018-02-15T09:25:05.625Z,977.72
2018-02-15T09:26:05.632Z,977.64
2018-02-15T09:27:05.659Z,977.69
2018-02-15T09:28:05.676Z,977.64
2018-02-15T09:29:05.614Z,977.73
2018-02-15T09:30:06.626Z,977.74
2018-02-15T09:31:05.792Z,977.72
2018-02-15T09:32:05.764Z,977.69
2018-02-15T09:33:06.349Z,977.79
2018-02-15T09:34:05.608Z,977.72
2018-02-15T09:35:05.593Z,977.69
2018-02-15T09:36:05.633Z,977.70
2018-02-15T09:37:05.589Z,977.64
2018-02-15T09:38:05.593Z,977.56
2018-02-15T09:39:05.616Z,977.59
2018-02-15T09:40:05.578Z,977.59
2018-02-15T09:41:05.578Z,977.65
2018-02-15T09:42:05.569Z,977.65
2018-02-15T09:43:05.554Z,977.59
2018-02-15T09:44:05.589Z,977.63
2018-02-15T09:45:05.544Z,977.63
2018-02-15T09:46:05.935Z,977.61
2018-02-15T09:47:05.965Z,977.56
2018-02-15T09:48:06.392Z,977.50
2018-02-15T09:49:06.316Z,977.59
2018-02-15T09:50:05.539Z,977.58
2018-02-15T09:51:05.525Z,977.50
2018-02-15T09:52:05.519Z,977.53
2018-02-15T09:53:05.518Z,977.49
2018-02-15T09:54:06.008Z,977.57
2018-02-15T09:55:05.507Z,977.54
2018-02-15T09:56:05.505Z,977.52
2018-02-15T09:57:05.504Z,977.60
2018-02-15T09:58:05.496Z,977.58
2018-02-15T09:59:05.533Z,977.64
2018-02-15T10:00:06.416Z,977.59
2018-02-15T10:01:05.513Z,977.61
2018-02-15T10:02:05.482Z,977.66
2018-02-15T10:03:06.420Z,977.65
2018-02-15T10:04:05.680Z,977.59
2018-02-15T10:05:05.765Z,977.57
2018-02-15T10:06:05.573Z,977.63
2018-02-15T10:07:05.480Z,977.63
2018-02-15T10:08:05.475Z,977.64
2018-02-15T10:09:05.512Z,977.66
2018-02-15T10:10:05.472Z,977.65
2018-02-15T10:11:05.468Z,977.65
2018-02-15T10:12:05.465Z,977.67
2018-02-15T10:13:05.460Z,977.65
2018-02-15T10:14:05.494Z,977.67
2018-02-15T10:15:05.452Z,977.60
2018-02-15T10:16:05.449Z,977.62
2018-02-15T10:17:05.447Z,977.64
2018-02-15T10:18:05.445Z,977.69
2018-02-15T10:19:05.528Z,977.75
2018-02-15T10:20:06.413Z,977.74
2018-02-15T10:21:05.545Z,977.81
2018-02-15T10:22:06.545Z,977.76
2018-02-15T10:23:29.541Z,977.85
2018-02-15T10:24:05.422Z,977.79
2018-02-15T10:25:05.422Z,977.74
2018-02-15T10:26:05.417Z,977.64
2018-02-15T10:27:05.419Z,977.77
2018-02-15T10:28:05.411Z,977.76
2018-02-15T10:29:05.452Z,977.81
2018-02-15T10:30:05.406Z,977.75
2018-02-15T10:31:05.404Z,977.73
2018-02-15T10:32:05.399Z,977.76
2018-02-15T10:33:05.400Z,977.79
2018-02-15T10:34:05.445Z,977.73
2018-02-15T10:35:05.391Z,977.75
2018-02-15T10:36:05.429Z,977.69
2018-02-15T10:37:05.384Z,977.70
2018-02-15T10:38:05.379Z,977.69
2018-02-15T10:39:05.430Z,977.69
2018-02-15T10:40:05.414Z,977.76
2018-02-15T10:41:05.372Z,977.73
2018-02-15T10:42:05.366Z,977.74
2018-02-15T10:43:05.367Z,977.69
2018-02-15T10:44:05.420Z,977.69
2018-02-15T10:45:05.360Z,977.69
2018-02-15T10:46:05.355Z,977.68
2018-02-15T10:47:05.356Z,977.59
2018-02-15T10:48:05.349Z,977.64
2018-02-15T10:49:05.385Z,977.59
2018-02-15T10:50:05.343Z,977.63
2018-02-15T10:51:05.368Z,977.58
2018-02-15T10:52:05.337Z,977.59
2018-02-15T10:53:05.336Z,977.55
2018-02-15T10:54:05.367Z,977.54
2018-02-15T10:55:05.332Z,977.58
2018-02-15T10:56:05.327Z,977.55
2018-02-15T10:57:05.330Z,977.50
2018-02-15T10:58:05.320Z,977.50
2018-02-15T10:59:05.357Z,977.45
2018-02-15T11:00:05.317Z,977.43
2018-02-15T11:01:05.320Z,977.36
2018-02-15T11:02:05.312Z,977.36
2018-02-15T11:03:05.310Z,977.27
2018-02-15T11:04:05.351Z,977.37
2018-02-15T11:05:05.305Z,977.31
2018-02-15T11:06:05.303Z,977.34
2018-02-15T11:07:05.299Z,977.21
2018-02-15T11:08:05.297Z,977.20
2018-02-15T11:09:05.343Z,977.23
2018-02-15T11:10:05.294Z,977.15
2018-02-15T11:11:05.287Z,977.23
2018-02-15T11:12:05.286Z,977.24
2018-02-15T11:13:05.281Z,977.25
2018-02-15T11:14:05.321Z,977.21
2018-02-15T11:15:05.279Z,977.23
2018-02-15T11:16:05.272Z,977.05
2018-02-15T11:17:05.274Z,977.16
2018-02-15T11:18:05.274Z,976.99
2018-02-15T11:19:05.305Z,976.99
2018-02-15T11:20:05.261Z,977.07
2018-02-15T11:21:05.260Z,977.08
2018-02-15T11:22:05.259Z,977.06
2018-02-15T11:23:05.256Z,976.94
2018-02-15T11:24:05.302Z,977.11
2018-02-15T11:25:05.250Z,977.03
2018-02-15T11:26:05.246Z,976.89
2018-02-15T11:27:05.243Z,976.93
2018-02-15T11:28:05.293Z,976.97
2018-02-15T11:29:05.236Z,976.89
2018-02-15T11:30:05.245Z,976.89
2018-02-15T11:31:05.235Z,976.93
2018-02-15T11:32:05.225Z,976.95
2018-02-15T11:33:05.263Z,976.91
2018-02-15T11:34:05.224Z,976.87
2018-02-15T11:35:05.260Z,976.91
2018-02-15T11:36:05.215Z,976.87
2018-02-15T11:37:05.210Z,976.99
2018-02-15T11:38:05.212Z,976.97
2018-02-15T11:39:05.205Z,977.07
2018-02-15T11:40:05.253Z,976.96
2018-02-15T11:41:05.197Z,976.98
2018-02-15T11:42:05.233Z,977.00
2018-02-15T11:43:05.190Z,977.11
2018-02-15T11:44:05.187Z,977.08
2018-02-15T11:45:05.184Z,977.02
2018-02-15T11:46:05.229Z,977.02
2018-02-15T11:47:05.183Z,977.03
2018-02-15T11:48:05.174Z,977.09
2018-02-15T11:49:05.172Z,977.03
2018-02-15T11:50:05.170Z,977.03
2018-02-15T11:51:05.212Z,976.99
2018-02-15T11:52:05.164Z,977.05
2018-02-15T11:53:05.160Z,977.07
2018-02-15T11:54:05.157Z,977.05
2018-02-15T11:55:05.203Z,977.08
2018-02-15T11:56:05.148Z,977.11
2018-02-15T11:57:05.143Z,977.16
2018-02-15T11:58:05.202Z,977.14
2018-02-15T11:59:05.140Z,977.14
2018-02-15T12:00:05.962Z,977.15
2018-02-15T12:01:05.152Z,977.11
2018-02-15T12:02:05.137Z,977.16
2018-02-15T12:03:05.127Z,977.20
2018-02-15T12:04:05.165Z,977.17
2018-02-15T12:05:05.158Z,977.16
2018-02-15T12:06:05.117Z,977.12
2018-02-15T12:07:05.113Z,977.07
2018-02-15T12:08:05.108Z,977.06
2018-02-15T12:09:05.104Z,977.07
2018-02-15T12:10:05.140Z,977.03
2018-02-15T12:11:05.104Z,977.01
2018-02-15T12:12:05.097Z,976.98
2018-02-15T12:13:05.095Z,977.02
2018-02-15T12:14:05.090Z,977.04
2018-02-15T12:15:05.131Z,977.08
2018-02-15T12:16:05.078Z,977.06
2018-02-15T12:17:05.078Z,977.05
2018-02-15T12:18:05.138Z,977.10
2018-02-15T12:19:05.072Z,977.08
2018-02-15T12:20:05.064Z,977.07
2018-02-15T12:21:05.102Z,977.03
2018-02-15T12:22:05.059Z,977.03
2018-02-15T12:23:05.059Z,977.00
2018-02-15T12:24:05.054Z,977.01
2018-02-15T12:25:05.059Z,977.01
2018-02-15T12:26:05.090Z,977.04
2018-02-15T12:27:05.042Z,976.98
2018-02-15T12:28:05.041Z,976.96